Time;durP1;ratioP1;P1;durP2;ratioP2;P2;SDS_P1;SDS_P2;PMS_P1;PMS_P2;Temp;Humidity;BMP_temperature;BMP_pressure;BME280_temperature;BME280_humidity;BME280_pressure;Samples;Min_cycle;Max_cycle;Signal;HPM_P1;HPM_P2
2022/02/28 00:00:55;;;;;;;0.22;0.22;;;2.10;99.90;;;;;;5096563;28;20036;-87
2022/02/28 00:03:22;;;;;;;0.20;0.20;;;0.80;99.90;;;;;;5112688;28;20182;-88
2022/02/28 00:05:49;;;;;;;0.20;0.20;;;0.70;99.90;;;;;;5096457;28;20043;-87
2022/02/28 00:08:16;;;;;;;0.20;0.20;;;1.90;99.90;;;;;;5096184;28;20040;-88
2022/02/28 00:10:42;;;;;;;0.28;0.28;;;1.90;99.90;;;;;;5113145;28;20064;-87
2022/02/28 00:13:10;;;;;;;0.20;0.20;;;0.70;99.90;;;;;;5099861;28;20512;-88
2022/02/28 00:15:37;;;;;;;0.10;0.10;;;0.60;99.90;;;;;;5133073;28;20043;-88
2022/02/28 00:18:04;;;;;;;0.20;0.20;;;0.60;99.90;;;;;;5099368;28;20523;-87
2022/02/28 00:20:31;;;;;;;0.25;0.25;;;0.60;99.90;;;;;;5081598;28;20035;-88
2022/02/28 00:22:57;;;;;;;0.20;0.20;;;0.60;99.90;;;;;;5098950;28;20454;-87
2022/02/28 00:25:24;;;;;;;0.15;0.15;;;0.60;99.90;;;;;;5082935;28;20071;-88
2022/02/28 00:27:51;;;;;;;0.20;0.20;;;0.70;99.90;;;;;;5115928;28;20035;-88
2022/02/28 00:30:18;;;;;;;0.30;0.30;;;1.30;99.90;;;;;;5099303;28;20408;-88
2022/02/28 00:32:44;;;;;;;0.20;0.20;;;0.50;99.90;;;;;;5082740;28;20392;-88
2022/02/28 00:35:11;;;;;;;0.20;0.20;;;1.20;99.90;;;;;;5083254;28;20047;-87
2022/02/28 00:37:38;;;;;;;0.20;0.20;;;0.50;99.90;;;;;;5115858;28;20040;-88
2022/02/28 00:40:07;;;;;;;0.20;0.20;;;0.80;99.90;;;;;;5099755;28;20039;-88
2022/02/28 00:42:34;;;;;;;0.15;0.15;;;0.50;99.90;;;;;;5099611;28;20036;-88
2022/02/28 00:45:01;;;;;;;0.35;0.35;;;1.20;99.90;;;;;;5098898;28;20047;-88
2022/02/28 00:47:28;;;;;;;0.20;0.20;;;1.60;99.90;;;;;;5116011;28;20032;-88
2022/02/28 00:49:54;;;;;;;0.30;0.30;;;0.40;99.90;;;;;;5099225;28;20126;-87
2022/02/28 00:52:21;;;;;;;0.22;0.22;;;1.50;99.90;;;;;;5099403;28;20484;-88
2022/02/28 00:54:48;;;;;;;0.20;0.20;;;1.70;99.90;;;;;;5115497;28;20043;-88
2022/02/28 00:57:15;;;;;;;0.20;0.20;;;0.40;99.90;;;;;;5082890;28;20096;-88
2022/02/28 00:59:42;;;;;;;0.20;0.20;;;1.70;99.90;;;;;;5098747;28;20492;-88
2022/02/28 01:02:09;;;;;;;0.30;0.30;;;1.80;99.90;;;;;;5098847;28;20093;-88
2022/02/28 01:04:36;;;;;;;0.22;0.22;;;1.30;99.90;;;;;;5115059;28;20089;-88
2022/02/28 01:07:04;;;;;;;0.40;0.40;;;0.50;99.90;;;;;;5114983;28;20041;-88
2022/02/28 01:09:34;;;;;;;0.20;0.20;;;0.60;99.90;;;;;;5115743;28;20092;-88
2022/02/28 01:12:02;;;;;;;0.20;0.20;;;1.60;99.90;;;;;;5114634;28;20067;-88
2022/02/28 01:14:29;;;;;;;0.30;0.30;;;1.30;99.90;;;;;;5098874;28;20043;-88
2022/02/28 01:16:56;;;;;;;0.20;0.20;;;0.40;99.90;;;;;;5098273;28;20108;-88
2022/02/28 01:19:23;;;;;;;0.20;0.20;;;1.60;99.90;;;;;;5098678;28;20044;-88
2022/02/28 01:21:50;;;;;;;0.30;0.30;;;1.50;99.90;;;;;;5098116;28;20051;-88
2022/02/28 01:24:17;;;;;;;0.20;0.20;;;0.50;99.90;;;;;;5098519;28;20106;-88
2022/02/28 01:26:45;;;;;;;0.20;0.20;;;1.40;99.90;;;;;;5114752;28;20057;-88
2022/02/28 01:29:12;;;;;;;0.20;0.20;;;1.60;99.90;;;;;;5081932;28;20043;-87
2022/02/28 01:31:39;;;;;;;0.20;0.20;;;1.30;99.90;;;;;;5097918;28;20126;-88
2022/02/28 01:34:06;;;;;;;0.20;0.20;;;1.20;99.90;;;;;;5097743;28;20131;-88
2022/02/28 01:36:33;;;;;;;0.20;0.20;;;0.30;99.90;;;;;;5114909;28;20043;-88
2022/02/28 01:39:02;;;;;;;0.28;0.28;;;0.80;99.90;;;;;;5098244;28;20558;-88
2022/02/28 01:41:29;;;;;;;0.20;0.20;;;0.20;99.90;;;;;;5082428;28;20036;-88
2022/02/28 01:43:56;;;;;;;0.20;0.20;;;0.30;99.90;;;;;;5097866;28;20499;-88
2022/02/28 01:46:23;;;;;;;0.20;0.20;;;1.70;99.90;;;;;;5081152;28;20039;-88
2022/02/28 01:48:50;;;;;;;0.10;0.10;;;0.20;99.90;;;;;;5097526;28;20251;-88
2022/02/28 01:51:16;;;;;;;0.17;0.17;;;0.10;99.90;;;;;;5081007;28;20123;-88
2022/02/28 01:53:43;;;;;;;0.20;0.20;;;0.20;99.90;;;;;;5081224;28;20116;-88
2022/02/28 01:56:10;;;;;;;0.20;0.20;;;1.00;99.90;;;;;;5097817;28;20039;-88
2022/02/28 01:58:38;;;;;;;0.20;0.20;;;0.10;99.90;;;;;;5097756;28;20040;-88
2022/02/28 02:01:06;;;;;;;0.20;0.20;;;0.80;99.90;;;;;;5114145;28;20036;-88
2022/02/28 02:03:34;;;;;;;0.20;0.20;;;0.00;99.90;;;;;;5097639;28;20099;-88
2022/02/28 02:06:01;;;;;;;0.30;0.30;;;0.00;99.90;;;;;;5114124;28;20040;-88
2022/02/28 02:08:27;;;;;;;0.30;0.30;;;-0.10;99.90;;;;;;5114330;28;20042;-88
2022/02/28 02:10:54;;;;;;;0.25;0.25;;;0.90;99.90;;;;;;5080629;28;20499;-87
2022/02/28 02:13:21;;;;;;;0.20;0.20;;;-0.10;99.90;;;;;;5080694;28;20047;-88
2022/02/28 02:15:48;;;;;;;0.20;0.20;;;0.90;99.90;;;;;;5097800;28;20036;-88
2022/02/28 02:18:15;;;;;;;0.20;0.20;;;-0.20;99.90;;;;;;5097276;28;20044;-88
2022/02/28 02:20:42;;;;;;;0.20;0.20;;;-0.20;99.90;;;;;;5114020;28;20079;-88
2022/02/28 02:23:11;;;;;;;0.20;0.20;;;1.30;99.90;;;;;;5080124;28;20112;-88
2022/02/28 02:25:39;;;;;;;0.30;0.30;;;-0.10;99.90;;;;;;5114002;28;20035;-89
2022/02/28 02:28:07;;;;;;;0.20;0.20;;;-0.10;99.90;;;;;;5113855;28;20027;-88
2022/02/28 02:30:35;;;;;;;0.20;0.20;;;-0.10;99.90;;;;;;5096907;28;20107;-89
2022/02/28 02:33:02;;;;;;;0.30;0.30;;;-0.20;99.90;;;;;;5096993;28;20499;-89
2022/02/28 02:35:29;;;;;;;0.20;0.20;;;-0.20;99.90;;;;;;5097836;28;20050;-89
2022/02/28 02:37:55;;;;;;;0.30;0.30;;;-0.20;99.90;;;;;;5096853;28;20389;-88
2022/02/28 02:40:22;;;;;;;0.30;0.30;;;-0.20;99.90;;;;;;5114727;28;20046;-88
2022/02/28 02:42:49;;;;;;;0.30;0.30;;;-0.20;99.90;;;;;;5080760;28;20040;-88
2022/02/28 02:45:16;;;;;;;0.20;0.20;;;0.90;99.90;;;;;;5100959;28;20040;-89
2022/02/28 02:47:45;;;;;;;0.20;0.20;;;1.00;99.90;;;;;;5101621;28;20035;-89
2022/02/28 02:50:12;;;;;;;0.38;0.38;;;1.10;99.90;;;;;;5085066;28;20042;-89
2022/02/28 02:52:39;;;;;;;0.30;0.30;;;-0.40;99.90;;;;;;5134763;28;20036;-88
2022/02/28 02:55:06;;;;;;;0.30;0.30;;;0.40;99.90;;;;;;5117443;28;20039;-88
2022/02/28 02:57:33;;;;;;;0.28;0.28;;;-0.20;99.90;;;;;;5101761;28;20039;-88
2022/02/28 03:00:03;;;;;;;0.30;0.30;;;0.70;99.90;;;;;;5084231;28;20393;-89
2022/02/28 03:02:32;;;;;;;0.30;0.30;;;1.00;99.90;;;;;;5118166;28;20203;-88
2022/02/28 03:04:59;;;;;;;0.30;0.30;;;-0.20;99.90;;;;;;5118079;28;20488;-88
2022/02/28 03:07:26;;;;;;;0.30;0.30;;;1.20;99.90;;;;;;5100909;28;20050;-89
2022/02/28 03:09:52;;;;;;;0.30;0.30;;;1.30;99.90;;;;;;5117907;28;20047;-89
2022/02/28 03:12:19;;;;;;;0.30;0.30;;;1.00;99.90;;;;;;5097178;28;20102;-88
2022/02/28 03:14:46;;;;;;;0.30;0.30;;;0.80;99.90;;;;;;5097538;28;20501;-88
2022/02/28 03:17:12;;;;;;;0.20;0.20;;;-0.20;99.90;;;;;;5097458;28;20044;-89
2022/02/28 03:19:39;;;;;;;0.30;0.30;;;0.90;99.90;;;;;;5097443;28;20039;-88
2022/02/28 03:22:06;;;;;;;0.30;0.30;;;0.80;99.90;;;;;;5097024;28;20488;-89
2022/02/28 03:24:33;;;;;;;0.30;0.30;;;-0.30;99.90;;;;;;5097238;28;20480;-89
2022/02/28 03:26:59;;;;;;;0.40;0.40;;;-0.30;99.90;;;;;;5096691;28;20032;-89
2022/02/28 03:29:26;;;;;;;0.30;0.30;;;1.10;99.90;;;;;;5113910;28;20050;-88
2022/02/28 03:31:53;;;;;;;0.30;0.30;;;0.90;99.90;;;;;;5097392;28;20036;-89
2022/02/28 03:34:20;;;;;;;0.20;0.20;;;0.30;99.90;;;;;;5097196;28;20069;-89
2022/02/28 03:36:46;;;;;;;0.30;0.30;;;1.10;99.90;;;;;;5097381;28;20047;-89
2022/02/28 03:39:13;;;;;;;0.30;0.30;;;-0.30;99.90;;;;;;5096953;28;20032;-89
2022/02/28 03:41:40;;;;;;;0.20;0.20;;;0.70;99.90;;;;;;5113755;28;20046;-89
2022/02/28 03:44:07;;;;;;;0.20;0.20;;;-0.40;99.90;;;;;;5096450;28;20039;-89
2022/02/28 03:46:34;;;;;;;0.20;0.20;;;0.80;99.90;;;;;;5096852;28;20047;-89
2022/02/28 03:49:01;;;;;;;0.20;0.20;;;1.20;99.90;;;;;;5097123;28;20044;-89
2022/02/28 03:51:28;;;;;;;0.30;0.30;;;-0.40;99.90;;;;;;5113635;28;20040;-88
2022/02/28 03:53:55;;;;;;;0.30;0.30;;;0.90;99.90;;;;;;5096596;28;20040;-89
2022/02/28 03:56:21;;;;;;;0.30;0.30;;;0.60;99.90;;;;;;5096326;28;21134;-88
2022/02/28 03:58:48;;;;;;;0.30;0.30;;;-0.50;99.90;;;;;;5096647;28;20089;-89
2022/02/28 04:01:15;;;;;;;0.20;0.20;;;0.70;99.90;;;;;;5096730;28;20542;-88
2022/02/28 04:03:41;;;;;;;0.30;0.30;;;0.90;99.90;;;;;;5096777;28;20032;-89
2022/02/28 04:06:08;;;;;;;0.30;0.30;;;0.50;99.90;;;;;;5095770;28;20489;-88
2022/02/28 04:08:35;;;;;;;0.20;0.20;;;0.60;99.90;;;;;;5096369;28;20072;-88
2022/02/28 04:11:02;;;;;;;0.30;0.30;;;0.70;99.90;;;;;;5096153;28;20044;-88
2022/02/28 04:13:29;;;;;;;0.30;0.30;;;-0.60;99.90;;;;;;5095890;28;20059;-89
2022/02/28 04:15:56;;;;;;;0.30;0.30;;;0.20;99.90;;;;;;5096273;28;20044;-89
2022/02/28 04:18:22;;;;;;;0.30;0.30;;;0.80;99.90;;;;;;5095793;28;20040;-90
2022/02/28 04:20:49;;;;;;;0.20;0.20;;;0.80;99.90;;;;;;5096422;28;20135;-89
2022/02/28 04:23:16;;;;;;;0.25;0.25;;;-0.60;99.90;;;;;;5095888;28;20063;-89
2022/02/28 04:25:44;;;;;;;0.30;0.30;;;0.40;99.90;;;;;;5096504;28;20048;-89
2022/02/28 04:28:10;;;;;;;0.30;0.30;;;-0.60;99.90;;;;;;5095921;28;20409;-89
2022/02/28 04:30:37;;;;;;;0.25;0.25;;;-0.60;99.90;;;;;;5096245;28;20047;-90
2022/02/28 04:33:04;;;;;;;0.25;0.25;;;-0.90;99.90;;;;;;5095969;28;20404;-89
2022/02/28 04:35:31;;;;;;;0.30;0.30;;;0.30;99.90;;;;;;5095557;28;20182;-89
2022/02/28 04:37:58;;;;;;;0.30;0.30;;;-0.80;99.90;;;;;;5096108;28;20040;-90
2022/02/28 04:40:25;;;;;;;0.30;0.30;;;0.80;99.90;;;;;;5096170;28;20039;-90
2022/02/28 04:42:52;;;;;;;0.30;0.30;;;-0.70;99.90;;;;;;5095714;28;20039;-90
2022/02/28 04:45:19;;;;;;;0.30;0.30;;;-0.50;99.90;;;;;;5095728;28;20040;-89
2022/02/28 04:47:45;;;;;;;0.30;0.30;;;-0.80;99.90;;;;;;5112279;28;20040;-89
2022/02/28 04:50:12;;;;;;;0.30;0.30;;;0.20;99.90;;;;;;5095230;28;20036;-90
2022/02/28 04:52:39;;;;;;;0.30;0.30;;;-0.80;99.90;;;;;;5095386;28;20607;-90
2022/02/28 04:55:06;;;;;;;0.20;0.20;;;0.10;99.90;;;;;;5112435;28;20066;-88
2022/02/28 04:57:41;;;;;;;0.30;0.30;;;-0.80;99.90;;;;;;5094948;28;20036;-89
2022/02/28 05:00:10;;;;;;;0.30;0.30;;;-0.80;99.90;;;;;;5096290;28;20507;-89
2022/02/28 05:02:37;;;;;;;0.38;0.38;;;-0.90;99.90;;;;;;5111871;28;20102;-89
2022/02/28 05:05:04;;;;;;;0.20;0.20;;;-0.90;99.90;;;;;;5112145;28;20040;-90
2022/02/28 05:07:31;;;;;;;0.28;0.28;;;-0.90;99.90;;;;;;5094264;28;20047;-90
2022/02/28 05:09:58;;;;;;;0.30;0.30;;;0.60;99.90;;;;;;5095215;28;20174;-89
2022/02/28 05:12:25;;;;;;;0.30;0.30;;;-0.90;99.90;;;;;;5094981;28;20109;-89
2022/02/28 05:14:52;;;;;;;0.30;0.30;;;-0.90;99.90;;;;;;5126137;28;20047;-90
2022/02/28 05:17:19;;;;;;;0.20;0.20;;;0.00;99.90;;;;;;5151583;27;20035;-90
2022/02/28 05:19:45;;;;;;;0.32;0.32;;;0.10;99.90;;;;;;5152824;27;20039;-90
2022/02/28 05:22:12;;;;;;;0.30;0.30;;;-0.90;99.90;;;;;;5098546;28;20042;-90
2022/02/28 05:24:39;;;;;;;0.30;0.30;;;0.10;99.90;;;;;;5132464;28;20366;-90
2022/02/28 05:27:09;;;;;;;0.30;0.30;;;0.00;99.90;;;;;;5132349;28;20109;-90
2022/02/28 05:29:37;;;;;;;0.30;0.30;;;-1.00;99.90;;;;;;5115769;28;20042;-90
2022/02/28 05:32:05;;;;;;;0.30;0.30;;;-1.00;99.90;;;;;;5115720;28;20074;-89
2022/02/28 05:34:32;;;;;;;0.30;0.30;;;-1.10;99.90;;;;;;5115382;28;20079;-90
2022/02/28 05:36:59;;;;;;;0.30;0.30;;;-0.20;99.90;;;;;;5115430;28;20066;-89
2022/02/28 05:39:26;;;;;;;0.30;0.30;;;0.00;99.90;;;;;;5098359;28;20493;-90
2022/02/28 05:41:53;;;;;;;0.30;0.30;;;0.20;99.90;;;;;;5132042;28;20194;-89
2022/02/28 05:44:20;;;;;;;0.32;0.32;;;-1.00;99.90;;;;;;5131327;28;20079;-90
2022/02/28 05:46:46;;;;;;;0.30;0.30;;;0.20;99.90;;;;;;5115391;28;20036;-89
2022/02/28 05:49:13;;;;;;;0.32;0.32;;;0.50;99.90;;;;;;5098158;28;20123;-88
2022/02/28 05:51:40;;;;;;;0.30;0.30;;;-1.10;99.90;;;;;;5114778;28;20039;-89
2022/02/28 05:54:07;;;;;;;0.35;0.35;;;-1.00;99.90;;;;;;5114773;28;20089;-90
2022/02/28 05:56:34;;;;;;;0.30;0.30;;;-1.00;99.90;;;;;;5131009;28;20043;-90
2022/02/28 05:59:01;;;;;;;0.30;0.30;;;0.30;99.90;;;;;;5114706;28;20090;-89
2022/02/28 06:01:27;;;;;;;0.30;0.30;;;-1.10;99.90;;;;;;5114103;28;20046;-90
2022/02/28 06:03:54;;;;;;;0.30;0.30;;;-1.10;99.90;;;;;;5097547;28;20036;-90
2022/02/28 06:06:21;;;;;;;0.30;0.30;;;-0.10;99.90;;;;;;5113917;28;20035;-91
2022/02/28 06:08:48;;;;;;;0.30;0.30;;;-0.40;99.90;;;;;;5113688;28;20534;-89
2022/02/28 06:11:15;;;;;;;0.20;0.20;;;-1.10;99.90;;;;;;5114261;27;20117;-90
2022/02/28 06:13:41;;;;;;;0.20;0.20;;;1.10;99.90;;;;;;5100990;27;20130;-90
2022/02/28 06:16:09;;;;;;;0.30;0.30;;;-1.20;99.90;;;;;;5118409;27;20071;-89
2022/02/28 06:18:36;;;;;;;0.35;0.35;;;-1.00;99.90;;;;;;5134701;27;20046;-89
2022/02/28 06:21:04;;;;;;;0.35;0.35;;;0.10;99.90;;;;;;5101318;27;20486;-89
2022/02/28 06:23:31;;;;;;;0.30;0.30;;;0.10;99.90;;;;;;5117506;27;20129;-89
2022/02/28 06:25:58;;;;;;;0.30;0.30;;;-1.10;99.90;;;;;;5118112;28;20088;-88
2022/02/28 06:28:27;;;;;;;0.30;0.30;;;0.00;99.90;;;;;;5118047;27;20392;-89
2022/02/28 06:30:54;;;;;;;0.30;0.30;;;-1.00;99.90;;;;;;5134681;28;20042;-90
2022/02/28 06:33:21;;;;;;;0.30;0.30;;;-1.10;99.90;;;;;;5101819;27;20042;-89
2022/02/28 06:35:48;;;;;;;0.30;0.30;;;-0.10;99.90;;;;;;5118092;28;20050;-89
2022/02/28 06:38:19;;;;;;;0.30;0.30;;;-0.80;99.90;;;;;;5117785;28;20078;-90
2022/02/28 06:40:46;;;;;;;0.30;0.30;;;-1.10;99.90;;;;;;5134442;28;20039;-89
2022/02/28 06:43:14;;;;;;;0.30;0.30;;;0.00;99.90;;;;;;5134423;28;20044;-89
2022/02/28 06:45:43;;;;;;;0.30;0.30;;;-0.30;99.90;;;;;;5134308;28;20043;-90
2022/02/28 06:48:10;;;;;;;0.30;0.30;;;0.20;99.90;;;;;;5134538;28;20035;-90
2022/02/28 06:50:37;;;;;;;0.40;0.40;;;-1.20;99.90;;;;;;5100510;28;20091;-91
2022/02/28 06:53:03;;;;;;;0.30;0.30;;;0.20;99.90;;;;;;5100374;28;20047;-89
2022/02/28 06:55:30;;;;;;;0.20;0.20;;;-0.60;99.90;;;;;;5133865;28;20126;-88
2022/02/28 06:57:57;;;;;;;0.50;0.50;;;-0.20;99.90;;;;;;5117211;28;20095;-90
2022/02/28 07:00:24;;;;;;;0.40;0.40;;;0.20;99.90;;;;;;5117669;28;20043;-90
2022/02/28 07:02:53;;;;;;;0.30;0.30;;;0.10;99.90;;;;;;5125236;27;20095;-89
2022/02/28 07:05:19;;;;;;;0.30;0.30;;;-1.20;99.90;;;;;;5135792;27;20045;-88
2022/02/28 07:07:46;;;;;;;0.40;0.40;;;-1.00;99.90;;;;;;5116986;28;20039;-90
2022/02/28 07:10:13;;;;;;;0.20;0.20;;;0.30;99.90;;;;;;5117595;28;20092;-91
2022/02/28 07:12:40;;;;;;;0.30;0.30;;;0.10;99.90;;;;;;5113015;28;20522;-90
2022/02/28 07:15:08;;;;;;;0.30;0.30;;;0.50;99.90;;;;;;5113807;28;20059;-89
2022/02/28 07:17:35;;;;;;;0.20;0.20;;;-0.80;99.90;;;;;;5130453;28;20404;-90
2022/02/28 07:20:03;;;;;;;0.30;0.30;;;-0.70;99.90;;;;;;5131121;28;20036;-89
2022/02/28 07:22:32;;;;;;;0.28;0.28;;;-0.70;99.90;;;;;;5113420;28;20046;-89
2022/02/28 07:24:59;;;;;;;0.30;0.30;;;0.30;99.90;;;;;;5130266;28;20084;-90
2022/02/28 07:27:26;;;;;;;0.30;0.30;;;-0.60;99.90;;;;;;5130293;28;20460;-88
2022/02/28 07:29:53;;;;;;;0.30;0.30;;;0.60;99.90;;;;;;5126565;28;20126;-89
2022/02/28 07:32:19;;;;;;;0.30;0.30;;;-0.50;99.90;;;;;;5152320;27;20035;-90
2022/02/28 07:34:46;;;;;;;0.20;0.20;;;0.80;99.90;;;;;;5153784;27;20046;-89
2022/02/28 07:37:13;;;;;;;0.32;0.32;;;-0.40;99.90;;;;;;5116973;28;20092;-90
2022/02/28 07:39:39;;;;;;;0.30;0.30;;;0.70;99.90;;;;;;5164443;27;20046;-88
2022/02/28 07:42:06;;;;;;;0.20;0.20;;;1.10;99.90;;;;;;5101060;28;20089;-88
2022/02/28 07:44:33;;;;;;;0.30;0.30;;;-0.30;99.90;;;;;;5133481;28;20047;-88
2022/02/28 07:47:00;;;;;;;0.30;0.30;;;0.30;99.90;;;;;;5117019;28;20060;-90
2022/02/28 07:49:33;;;;;;;0.30;0.30;;;-0.20;99.90;;;;;;5119221;28;20038;-89
2022/02/28 07:52:00;;;;;;;0.30;0.30;;;1.00;99.90;;;;;;5135087;28;20042;-90
2022/02/28 07:54:26;;;;;;;0.30;0.30;;;0.40;99.90;;;;;;5100114;28;20404;-89
2022/02/28 07:56:53;;;;;;;0.20;0.20;;;1.00;99.90;;;;;;5099670;28;20039;-88
2022/02/28 07:59:20;;;;;;;0.30;0.30;;;1.20;99.90;;;;;;5117114;28;20039;-89
2022/02/28 08:01:46;;;;;;;0.32;0.32;;;0.10;99.90;;;;;;5116444;28;20400;-87
2022/02/28 08:04:13;;;;;;;0.30;0.30;;;1.50;99.90;;;;;;5125768;28;20032;-88
2022/02/28 08:06:40;;;;;;;0.20;0.20;;;0.20;99.90;;;;;;5120360;27;20027;-93
2022/02/28 08:09:08;;;;;;;0.20;0.20;;;0.30;99.90;;;;;;5118510;28;20032;-92
2022/02/28 08:11:35;;;;;;;0.28;0.28;;;1.50;99.90;;;;;;5118653;27;20054;-88
2022/02/28 08:14:03;;;;;;;0.25;0.25;;;0.50;99.90;;;;;;5103193;27;20047;-91
2022/02/28 08:16:30;;;;;;;0.30;0.30;;;0.60;99.90;;;;;;5136882;27;20035;-86
2022/02/28 08:18:57;;;;;;;0.20;0.20;;;0.60;99.90;;;;;;5125510;28;20040;-86
2022/02/28 08:21:23;;;;;;;0.20;0.20;;;0.70;99.90;;;;;;5086727;27;20595;-91
2022/02/28 08:23:50;;;;;;;0.25;0.25;;;2.20;99.90;;;;;;5118982;27;20039;-92
2022/02/28 08:26:17;;;;;;;0.30;0.30;;;0.90;99.90;;;;;;5098727;28;20093;-87
2022/02/28 08:28:44;;;;;;;0.20;0.20;;;1.80;99.90;;;;;;5133845;27;20100;-87
2022/02/28 08:31:10;;;;;;;0.30;0.30;;;1.00;99.90;;;;;;5136806;27;20042;-91
2022/02/28 08:33:37;;;;;;;0.20;0.20;;;1.20;99.90;;;;;;5100624;27;20042;-86
2022/02/28 08:36:04;;;;;;;0.10;0.10;;;1.30;99.90;;;;;;5153261;27;20046;-86
2022/02/28 08:38:31;;;;;;;0.25;0.25;;;1.40;99.90;;;;;;5119027;27;20043;-86
2022/02/28 08:40:57;;;;;;;0.20;0.20;;;2.90;99.90;;;;;;5134235;27;20035;-87
2022/02/28 08:43:26;;;;;;;0.30;0.30;;;2.90;99.90;;;;;;5101774;27;20384;-91
2022/02/28 08:45:54;;;;;;;0.30;0.30;;;1.80;99.90;;;;;;5118781;27;20043;-92
2022/02/28 08:48:20;;;;;;;0.20;0.20;;;1.90;99.90;;;;;;5118581;27;20042;-91
2022/02/28 08:50:47;;;;;;;0.25;0.25;;;2.00;99.90;;;;;;5116485;27;20039;-86
2022/02/28 08:53:14;;;;;;;0.20;0.20;;;2.10;99.90;;;;;;5134712;27;20491;-85
2022/02/28 08:55:41;;;;;;;0.20;0.20;;;3.50;99.90;;;;;;5101502;27;20132;-85
2022/02/28 08:58:08;;;;;;;0.20;0.20;;;3.40;99.90;;;;;;5135524;27;20051;-87
2022/02/28 09:00:37;;;;;;;0.20;0.20;;;3.20;99.90;;;;;;5118428;27;20074;-92
2022/02/28 09:03:06;;;;;;;0.28;0.28;;;2.70;99.90;;;;;;5118670;27;20479;-88
2022/02/28 09:05:34;;;;;;;0.10;0.10;;;3.40;99.90;;;;;;5119195;27;20070;-88
2022/02/28 09:08:04;;;;;;;0.30;0.30;;;2.70;99.90;;;;;;5104937;27;20043;-91
2022/02/28 09:10:32;;;;;;;0.20;0.20;;;2.80;99.90;;;;;;5135232;27;20100;-87
2022/02/28 09:12:58;;;;;;;0.10;0.10;;;2.90;99.90;;;;;;5134362;27;20051;-89
2022/02/28 09:15:25;;;;;;;0.10;0.10;;;3.20;99.90;;;;;;5118312;27;20051;-87
2022/02/28 09:17:52;;;;;;;0.10;0.10;;;3.10;99.90;;;;;;5134842;27;20074;-88
2022/02/28 09:20:19;;;;;;;0.20;0.20;;;3.20;99.90;;;;;;5118164;27;20492;-88
2022/02/28 09:22:46;;;;;;;0.10;0.10;;;3.20;99.90;;;;;;5135017;27;20448;-88
2022/02/28 09:25:13;;;;;;;0.10;0.10;;;3.30;99.90;;;;;;5135203;27;20511;-89
2022/02/28 09:27:40;;;;;;;0.20;0.20;;;4.60;99.90;;;;;;5117681;27;20076;-89
2022/02/28 09:30:08;;;;;;;0.20;0.20;;;3.60;99.90;;;;;;5135358;27;20039;-91
2022/02/28 09:32:35;;;;;;;0.10;0.10;;;3.70;99.90;;;;;;5134824;27;20046;-87
2022/02/28 09:35:02;;;;;;;0.13;0.13;;;3.80;99.90;;;;;;5117094;27;20042;-87
2022/02/28 09:37:28;;;;;;;0.20;0.20;;;3.90;99.90;;;;;;5134805;27;20047;-88
2022/02/28 09:39:55;;;;;;;1.17;0.82;;;4.70;99.90;;;;;;5113813;28;20059;-90
2022/02/28 09:42:22;;;;;;;0.10;0.10;;;4.30;99.90;;;;;;5080851;28;20050;-91
2022/02/28 09:44:50;;;;;;;0.17;0.17;;;4.30;99.90;;;;;;5115587;27;20039;-86
2022/02/28 09:47:18;;;;;;;0.10;0.10;;;4.40;99.90;;;;;;5134904;27;20035;-90
2022/02/28 09:49:45;;;;;;;0.17;0.17;;;5.40;99.90;;;;;;5133983;27;20047;-86
2022/02/28 09:52:12;;;;;;;0.10;0.10;;;4.60;99.90;;;;;;5133813;27;20042;-87
2022/02/28 09:54:42;;;;;;;0.10;0.10;;;5.40;99.90;;;;;;5101156;27;20043;-92
2022/02/28 09:57:10;;;;;;;0.55;0.45;;;4.80;99.90;;;;;;5134395;27;20085;-88
2022/02/28 09:59:41;;;;;;;0.10;0.10;;;4.90;99.90;;;;;;5134138;27;20049;-92
2022/02/28 10:02:08;;;;;;;0.73;0.38;;;5.00;99.90;;;;;;5117838;27;20487;-91
2022/02/28 10:04:35;;;;;;;0.10;0.10;;;5.10;99.90;;;;;;5133900;27;20039;-92
2022/02/28 10:07:17;;;;;;;0.10;0.10;;;5.20;99.90;;;;;;5116159;27;20039;-89
2022/02/28 10:09:43;;;;;;;0.10;0.10;;;5.30;99.90;;;;;;5133443;27;20074;-87
2022/02/28 10:12:10;;;;;;;0.10;0.10;;;5.40;99.90;;;;;;5116655;27;20190;-91
2022/02/28 10:14:37;;;;;;;0.10;0.10;;;5.40;99.90;;;;;;5134089;27;20127;-89
2022/02/28 10:17:05;;;;;;;0.10;0.10;;;6.10;99.90;;;;;;5117223;27;20043;-84
2022/02/28 10:19:35;;;;;;;0.10;0.10;;;5.70;99.90;;;;;;5133494;27;20046;-87
2022/02/28 10:22:04;;;;;;;0.10;0.10;;;5.90;99.90;;;;;;5117265;27;20672;-87
2022/02/28 10:24:39;;;;;;;0.10;0.10;;;5.90;99.90;;;;;;5133634;27;20118;-84
2022/02/28 10:27:08;;;;;;;0.10;0.10;;;5.90;99.90;;;;;;5133307;28;20035;-84
2022/02/28 10:29:42;;;;;;;0.10;0.10;;;6.10;99.90;;;;;;5133245;27;20035;-86
2022/02/28 10:32:10;;;;;;;0.10;0.10;;;6.20;99.90;;;;;;5133710;27;20043;-84
2022/02/28 10:37:24;;;;;;;0.30;0.30;;;6.40;99.90;;;;;;5135620;27;20528;-83
2022/02/28 10:40:00;;;;;;;0.08;0.08;;;6.40;99.90;;;;;;5116530;28;20046;-90
2022/02/28 10:42:47;;;;;;;0.10;0.10;;;6.40;99.90;;;;;;5133530;28;20480;-84
2022/02/28 10:45:21;;;;;;;0.10;0.10;;;6.50;99.90;;;;;;5133619;28;20050;-88
2022/02/28 10:47:52;;;;;;;0.10;0.10;;;6.60;99.90;;;;;;5133700;28;20035;-85
2022/02/28 10:50:39;;;;;;;0.10;0.10;;;6.70;99.90;;;;;;5150340;28;20039;-86
2022/02/28 10:53:13;;;;;;;0.10;0.10;;;6.90;99.90;;;;;;5132968;28;20065;-84
2022/02/28 10:55:41;;;;;;;0.20;0.20;;;6.80;99.90;;;;;;5116524;28;20047;-89
2022/02/28 10:58:10;;;;;;;0.10;0.10;;;6.80;99.90;;;;;;5116721;28;20139;-87
2022/02/28 11:01:12;;;;;;;0.10;0.10;;;6.90;99.90;;;;;;5117238;28;20387;-86
2022/02/28 11:03:43;;;;;;;0.10;0.10;;;7.00;99.90;;;;;;5068070;28;20052;-84
2022/02/28 11:06:13;;;;;;;0.03;0.03;;;7.00;99.90;;;;;;5146975;27;20843;-84
2022/02/28 11:08:43;;;;;;;0.10;0.10;;;7.10;99.90;;;;;;5154051;27;20122;-86
2022/02/28 11:11:12;;;;;;;0.10;0.10;;;7.10;99.90;;;;;;5136963;27;20067;-87
2022/02/28 11:13:41;;;;;;;0.10;0.10;;;7.10;99.90;;;;;;5131835;28;20063;-86
2022/02/28 11:16:09;;;;;;;0.00;0.00;;;7.20;99.90;;;;;;5134150;28;20035;-87
2022/02/28 11:18:37;;;;;;;0.10;0.10;;;7.20;99.90;;;;;;5134325;28;20118;-84
2022/02/28 11:21:04;;;;;;;0.10;0.10;;;7.30;99.90;;;;;;5133478;28;20040;-84
2022/02/28 11:23:32;;;;;;;0.22;0.22;;;7.30;99.90;;;;;;5133267;28;20050;-85
2022/02/28 11:25:58;;;;;;;0.10;0.10;;;7.30;99.90;;;;;;5115893;28;20065;-87
2022/02/28 11:28:25;;;;;;;0.05;0.05;;;7.30;99.90;;;;;;5099870;28;20039;-84
2022/02/28 11:31:03;;;;;;;0.10;0.10;;;7.40;99.90;;;;;;5133339;27;20036;-85
2022/02/28 11:33:30;;;;;;;0.10;0.10;;;7.40;99.90;;;;;;5150565;28;20038;-84
2022/02/28 11:35:58;;;;;;;0.10;0.10;;;7.50;99.90;;;;;;5133158;28;20114;-84
2022/02/28 11:38:28;;;;;;;0.00;0.00;;;7.50;99.90;;;;;;5133837;28;20714;-87
2022/02/28 11:41:02;;;;;;;0.10;0.10;;;7.50;99.90;;;;;;5132857;28;20131;-87
2022/02/28 11:43:37;;;;;;;0.10;0.10;;;7.60;99.90;;;;;;5133315;28;20039;-85
2022/02/28 11:46:07;;;;;;;0.10;0.10;;;7.60;99.90;;;;;;5115879;28;20040;-86
2022/02/28 11:48:43;;;;;;;0.03;0.03;;;7.50;99.90;;;;;;5149572;28;20032;-86
2022/02/28 11:51:27;;;;;;;0.10;0.10;;;7.60;99.90;;;;;;5132758;28;20852;-87
2022/02/28 11:54:28;;;;;;;0.10;0.10;;;7.60;99.90;;;;;;5132644;28;20039;-87
2022/02/28 11:56:58;;;;;;;0.10;0.10;;;7.60;99.90;;;;;;5100193;28;20560;-87
2022/02/28 11:59:27;;;;;;;0.00;0.00;;;7.60;99.90;;;;;;5116137;28;20502;-89
2022/02/28 12:02:05;;;;;;;0.00;0.00;;;7.60;99.90;;;;;;5116166;28;20092;-90
2022/02/28 12:04:42;;;;;;;0.00;0.00;;;7.70;99.90;;;;;;5133107;28;20119;-87
2022/02/28 12:07:26;;;;;;;0.10;0.10;;;7.70;99.90;;;;;;5132750;28;20404;-90
2022/02/28 12:10:08;;;;;;;0.00;0.00;;;7.80;99.90;;;;;;5132366;28;20043;-89
2022/02/28 12:12:37;;;;;;;0.10;0.10;;;7.80;99.90;;;;;;5132568;28;20055;-88
2022/02/28 12:15:03;;;;;;;0.10;0.10;;;7.80;99.90;;;;;;5141150;28;20492;-88
2022/02/28 12:17:34;;;;;;;0.10;0.10;;;7.80;99.90;;;;;;5126858;28;20100;-87
2022/02/28 12:20:28;;;;;;;0.10;0.10;;;7.80;99.90;;;;;;5148961;28;20051;-84
2022/02/28 12:22:58;;;;;;;0.10;0.10;;;7.80;99.90;;;;;;5134250;28;20032;-85
2022/02/28 12:25:37;;;;;;;0.10;0.10;;;7.90;99.90;;;;;;5128794;28;20040;-85
2022/02/28 12:28:22;;;;;;;0.10;0.10;;;8.00;99.90;;;;;;5111725;28;20065;-86
2022/02/28 12:30:54;;;;;;;0.00;0.00;;;7.80;99.90;;;;;;5112100;28;20040;-85
2022/02/28 12:33:49;;;;;;;0.10;0.10;;;7.90;99.90;;;;;;5111704;28;20047;-85
2022/02/28 12:36:29;;;;;;;0.00;0.00;;;7.90;98.60;;;;;;5109126;28;20066;-86
2022/02/28 12:39:00;;;;;;;0.00;0.00;;;7.90;99.20;;;;;;5091712;28;20135;-84
2022/02/28 12:41:36;;;;;;;0.10;0.10;;;7.80;99.10;;;;;;5107967;28;20455;-84
2022/02/28 12:44:05;;;;;;;0.00;0.00;;;7.80;99.90;;;;;;5111846;28;20032;-88
2022/02/28 12:46:47;;;;;;;0.10;0.10;;;7.80;99.70;;;;;;5075420;28;20047;-84
2022/02/28 12:49:16;;;;;;;0.00;0.00;;;7.90;99.90;;;;;;5090704;28;20475;-87
2022/02/28 12:51:44;;;;;;;0.00;0.00;;;7.90;99.30;;;;;;5091986;28;20037;-88
2022/02/28 12:54:26;;;;;;;0.08;0.08;;;8.00;99.90;;;;;;5091177;28;20489;-84
2022/02/28 12:56:56;;;;;;;0.25;0.25;;;8.00;99.90;;;;;;5091113;28;20040;-87
2022/02/28 12:59:36;;;;;;;0.13;0.13;;;8.00;99.90;;;;;;5093141;28;20570;-90
2022/02/28 13:02:05;;;;;;;0.45;0.35;;;8.10;99.90;;;;;;5102005;28;20094;-89
2022/02/28 13:04:33;;;;;;;0.10;0.10;;;8.10;99.70;;;;;;5074766;28;20040;-90